sensor_id;sensor_type;location;lat;lon;timestamp;P1;durP1;ratioP1;P2;durP2;ratioP2
63653;SDS011;49809;47.418;19.080;2024-01-10T00:00:28;34.92;;;13.10;;
63653;SDS011;49809;47.418;19.080;2024-01-10T00:03:33;27.45;;;13.75;;
63653;SDS011;49809;47.418;19.080;2024-01-10T00:06:36;32.95;;;13.57;;
63653;SDS011;49809;47.418;19.080;2024-01-10T00:09:40;28.52;;;13.07;;
63653;SDS011;49809;47.418;19.080;2024-01-10T00:12:43;30.75;;;12.25;;
63653;SDS011;49809;47.418;19.080;2024-01-10T00:15:48;29.67;;;13.05;;
63653;SDS011;49809;47.418;19.080;2024-01-10T00:18:52;37.53;;;12.98;;
63653;SDS011;49809;47.418;19.080;2024-01-10T00:21:57;37.80;;;13.95;;
63653;SDS011;49809;47.418;19.080;2024-01-10T00:25:00;32.30;;;13.20;;
63653;SDS011;49809;47.418;19.080;2024-01-10T00:28:03;29.63;;;12.52;;
63653;SDS011;49809;47.418;19.080;2024-01-10T00:31:08;30.77;;;12.90;;
63653;SDS011;49809;47.418;19.080;2024-01-10T00:34:13;26.12;;;11.80;;
63653;SDS011;49809;47.418;19.080;2024-01-10T00:37:16;30.20;;;12.32;;
63653;SDS011;49809;47.418;19.080;2024-01-10T00:40:22;41.03;;;12.70;;
63653;SDS011;49809;47.418;19.080;2024-01-10T00:43:32;32.58;;;14.20;;
63653;SDS011;49809;47.418;19.080;2024-01-10T00:49:41;32.00;;;12.43;;
63653;SDS011;49809;47.418;19.080;2024-01-10T00:52:47;31.80;;;12.83;;
63653;SDS011;49809;47.418;19.080;2024-01-10T00:55:53;26.08;;;11.60;;
63653;SDS011;49809;47.418;19.080;2024-01-10T00:58:58;34.13;;;12.50;;
63653;SDS011;49809;47.418;19.080;2024-01-10T01:02:04;30.45;;;12.50;;
63653;SDS011;49809;47.418;19.080;2024-01-10T01:05:08;35.90;;;14.45;;
63653;SDS011;49809;47.418;19.080;2024-01-10T01:08:11;37.53;;;14.38;;
63653;SDS011;49809;47.418;19.080;2024-01-10T01:11:15;37.67;;;16.10;;
63653;SDS011;49809;47.418;19.080;2024-01-10T01:14:20;41.97;;;15.77;;
63653;SDS011;49809;47.418;19.080;2024-01-10T01:17:25;44.63;;;16.20;;
63653;SDS011;49809;47.418;19.080;2024-01-10T01:20:32;45.42;;;14.73;;
63653;SDS011;49809;47.418;19.080;2024-01-10T01:23:42;47.95;;;17.50;;
63653;SDS011;49809;47.418;19.080;2024-01-10T01:26:50;42.28;;;16.83;;
63653;SDS011;49809;47.418;19.080;2024-01-10T01:29:53;45.47;;;17.27;;
63653;SDS011;49809;47.418;19.080;2024-01-10T01:33:16;44.90;;;16.75;;
63653;SDS011;49809;47.418;19.080;2024-01-10T01:36:20;44.90;;;16.25;;
63653;SDS011;49809;47.418;19.080;2024-01-10T01:39:25;42.13;;;16.60;;
63653;SDS011;49809;47.418;19.080;2024-01-10T01:42:32;39.50;;;15.73;;
63653;SDS011;49809;47.418;19.080;2024-01-10T01:45:35;31.65;;;14.38;;
63653;SDS011;49809;47.418;19.080;2024-01-10T01:48:41;39.42;;;15.45;;
63653;SDS011;49809;47.418;19.080;2024-01-10T01:51:45;39.50;;;14.68;;
63653;SDS011;49809;47.418;19.080;2024-01-10T01:55:08;30.73;;;12.90;;
63653;SDS011;49809;47.418;19.080;2024-01-10T01:58:13;32.55;;;14.27;;
63653;SDS011;49809;47.418;19.080;2024-01-10T02:01:17;33.63;;;13.73;;
63653;SDS011;49809;47.418;19.080;2024-01-10T02:04:26;37.35;;;13.30;;
63653;SDS011;49809;47.418;19.080;2024-01-10T02:07:30;34.30;;;13.50;;
63653;SDS011;49809;47.418;19.080;2024-01-10T02:10:38;36.38;;;13.32;;
63653;SDS011;49809;47.418;19.080;2024-01-10T02:13:41;34.88;;;12.75;;
63653;SDS011;49809;47.418;19.080;2024-01-10T02:16:45;28.38;;;10.52;;
63653;SDS011;49809;47.418;19.080;2024-01-10T02:20:07;26.75;;;11.23;;
63653;SDS011;49809;47.418;19.080;2024-01-10T02:23:12;28.02;;;11.75;;
63653;SDS011;49809;47.418;19.080;2024-01-10T02:26:18;25.37;;;10.07;;
63653;SDS011;49809;47.418;19.080;2024-01-10T02:29:22;31.65;;;11.12;;
63653;SDS011;49809;47.418;19.080;2024-01-10T02:32:27;25.92;;;10.48;;
63653;SDS011;49809;47.418;19.080;2024-01-10T02:35:31;21.80;;;8.85;;
63653;SDS011;49809;47.418;19.080;2024-01-10T02:38:38;21.95;;;10.13;;
63653;SDS011;49809;47.418;19.080;2024-01-10T02:41:43;27.45;;;10.77;;
63653;SDS011;49809;47.418;19.080;2024-01-10T02:44:49;24.77;;;8.32;;
63653;SDS011;49809;47.418;19.080;2024-01-10T02:47:54;20.70;;;9.43;;
63653;SDS011;49809;47.418;19.080;2024-01-10T02:54:03;18.02;;;8.18;;
63653;SDS011;49809;47.418;19.080;2024-01-10T02:57:07;21.08;;;9.32;;
63653;SDS011;49809;47.418;19.080;2024-01-10T03:00:12;18.67;;;8.95;;
63653;SDS011;49809;47.418;19.080;2024-01-10T03:03:17;20.50;;;8.45;;
63653;SDS011;49809;47.418;19.080;2024-01-10T03:06:21;23.33;;;8.63;;
63653;SDS011;49809;47.418;19.080;2024-01-10T03:09:24;20.08;;;8.10;;
63653;SDS011;49809;47.418;19.080;2024-01-10T03:12:27;20.33;;;7.85;;
63653;SDS011;49809;47.418;19.080;2024-01-10T03:15:31;16.10;;;8.05;;
63653;SDS011;49809;47.418;19.080;2024-01-10T03:18:40;15.63;;;7.10;;
63653;SDS011;49809;47.418;19.080;2024-01-10T03:21:43;18.23;;;7.65;;
63653;SDS011;49809;47.418;19.080;2024-01-10T03:24:46;20.52;;;8.48;;
63653;SDS011;49809;47.418;19.080;2024-01-10T03:27:54;13.75;;;7.53;;
63653;SDS011;49809;47.418;19.080;2024-01-10T03:30:56;24.12;;;9.27;;
63653;SDS011;49809;47.418;19.080;2024-01-10T03:34:00;18.55;;;8.13;;
63653;SDS011;49809;47.418;19.080;2024-01-10T03:37:04;20.60;;;8.60;;
63653;SDS011;49809;47.418;19.080;2024-01-10T03:40:12;27.67;;;8.67;;
63653;SDS011;49809;47.418;19.080;2024-01-10T03:43:15;19.67;;;8.27;;
63653;SDS011;49809;47.418;19.080;2024-01-10T03:46:19;19.80;;;8.60;;
63653;SDS011;49809;47.418;19.080;2024-01-10T03:49:25;21.08;;;8.55;;
63653;SDS011;49809;47.418;19.080;2024-01-10T03:52:28;20.50;;;8.65;;
63653;SDS011;49809;47.418;19.080;2024-01-10T03:55:31;23.10;;;7.95;;
63653;SDS011;49809;47.418;19.080;2024-01-10T03:58:38;22.50;;;8.38;;
63653;SDS011;49809;47.418;19.080;2024-01-10T04:01:41;24.58;;;8.48;;
63653;SDS011;49809;47.418;19.080;2024-01-10T04:04:45;24.35;;;7.82;;
63653;SDS011;49809;47.418;19.080;2024-01-10T04:07:51;14.43;;;7.60;;
63653;SDS011;49809;47.418;19.080;2024-01-10T04:11:02;22.42;;;7.85;;
63653;SDS011;49809;47.418;19.080;2024-01-10T04:17:12;19.52;;;7.82;;
63653;SDS011;49809;47.418;19.080;2024-01-10T04:20:15;16.52;;;6.78;;
63653;SDS011;49809;47.418;19.080;2024-01-10T04:23:18;17.12;;;7.93;;
63653;SDS011;49809;47.418;19.080;2024-01-10T04:29:29;17.75;;;7.40;;
63653;SDS011;49809;47.418;19.080;2024-01-10T04:32:57;17.50;;;8.43;;
63653;SDS011;49809;47.418;19.080;2024-01-10T04:36:00;17.30;;;7.60;;
63653;SDS011;49809;47.418;19.080;2024-01-10T04:39:06;17.15;;;7.05;;
63653;SDS011;49809;47.418;19.080;2024-01-10T04:42:12;17.60;;;7.53;;
63653;SDS011;49809;47.418;19.080;2024-01-10T04:45:15;20.62;;;8.45;;
63653;SDS011;49809;47.418;19.080;2024-01-10T04:48:21;19.35;;;7.65;;
63653;SDS011;49809;47.418;19.080;2024-01-10T04:51:29;18.98;;;8.30;;
63653;SDS011;49809;47.418;19.080;2024-01-10T04:54:33;19.15;;;9.00;;
63653;SDS011;49809;47.418;19.080;2024-01-10T04:57:36;19.02;;;7.65;;
63653;SDS011;49809;47.418;19.080;2024-01-10T05:00:40;15.55;;;7.50;;
63653;SDS011;49809;47.418;19.080;2024-01-10T05:03:48;23.80;;;8.97;;
63653;SDS011;49809;47.418;19.080;2024-01-10T05:06:53;20.25;;;7.97;;
63653;SDS011;49809;47.418;19.080;2024-01-10T05:09:56;21.77;;;9.13;;
63653;SDS011;49809;47.418;19.080;2024-01-10T05:13:00;22.62;;;8.32;;
63653;SDS011;49809;47.418;19.080;2024-01-10T05:16:05;18.73;;;8.57;;
63653;SDS011;49809;47.418;19.080;2024-01-10T05:19:16;19.70;;;8.38;;
63653;SDS011;49809;47.418;19.080;2024-01-10T05:22:19;18.83;;;7.77;;
63653;SDS011;49809;47.418;19.080;2024-01-10T05:25:22;15.88;;;7.40;;
63653;SDS011;49809;47.418;19.080;2024-01-10T05:28:25;19.95;;;8.35;;
63653;SDS011;49809;47.418;19.080;2024-01-10T05:31:29;20.85;;;7.55;;
63653;SDS011;49809;47.418;19.080;2024-01-10T05:34:34;14.00;;;6.62;;
63653;SDS011;49809;47.418;19.080;2024-01-10T05:37:40;12.80;;;5.97;;
63653;SDS011;49809;47.418;19.080;2024-01-10T05:40:47;11.20;;;5.85;;
63653;SDS011;49809;47.418;19.080;2024-01-10T05:43:56;13.20;;;6.60;;
63653;SDS011;49809;47.418;19.080;2024-01-10T05:46:59;14.60;;;5.90;;
63653;SDS011;49809;47.418;19.080;2024-01-10T05:50:02;13.95;;;5.60;;
63653;SDS011;49809;47.418;19.080;2024-01-10T05:53:10;12.10;;;5.93;;
63653;SDS011;49809;47.418;19.080;2024-01-10T05:56:15;13.50;;;5.47;;
63653;SDS011;49809;47.418;19.080;2024-01-10T05:59:18;11.93;;;6.20;;
63653;SDS011;49809;47.418;19.080;2024-01-10T06:02:22;10.63;;;5.75;;
63653;SDS011;49809;47.418;19.080;2024-01-10T06:05:27;14.07;;;5.22;;
63653;SDS011;49809;47.418;19.080;2024-01-10T06:08:33;12.23;;;5.37;;
63653;SDS011;49809;47.418;19.080;2024-01-10T06:11:40;11.18;;;5.10;;
63653;SDS011;49809;47.418;19.080;2024-01-10T06:14:44;11.82;;;5.68;;
63653;SDS011;49809;47.418;19.080;2024-01-10T06:17:47;12.57;;;5.93;;
63653;SDS011;49809;47.418;19.080;2024-01-10T06:20:53;14.68;;;5.22;;
63653;SDS011;49809;47.418;19.080;2024-01-10T06:23:57;14.07;;;7.25;;
63653;SDS011;49809;47.418;19.080;2024-01-10T06:27:01;11.48;;;5.62;;
63653;SDS011;49809;47.418;19.080;2024-01-10T06:30:05;11.98;;;5.95;;
63653;SDS011;49809;47.418;19.080;2024-01-10T06:33:09;13.75;;;5.87;;
63653;SDS011;49809;47.418;19.080;2024-01-10T06:36:16;11.02;;;5.97;;
63653;SDS011;49809;47.418;19.080;2024-01-10T06:39:21;18.23;;;7.75;;
63653;SDS011;49809;47.418;19.080;2024-01-10T06:42:25;17.12;;;8.38;;
63653;SDS011;49809;47.418;19.080;2024-01-10T06:45:28;17.40;;;8.13;;
63653;SDS011;49809;47.418;19.080;2024-01-10T06:48:32;15.98;;;7.70;;
63653;SDS011;49809;47.418;19.080;2024-01-10T06:51:45;22.37;;;8.52;;
63653;SDS011;49809;47.418;19.080;2024-01-10T06:54:48;25.03;;;9.07;;
63653;SDS011;49809;47.418;19.080;2024-01-10T06:57:51;28.48;;;10.45;;
63653;SDS011;49809;47.418;19.080;2024-01-10T07:00:58;27.50;;;11.25;;
63653;SDS011;49809;47.418;19.080;2024-01-10T07:04:37;31.23;;;10.18;;
63653;SDS011;49809;47.418;19.080;2024-01-10T07:08:14;28.30;;;10.68;;
63653;SDS011;49809;47.418;19.080;2024-01-10T07:11:52;26.67;;;10.93;;
63653;SDS011;49809;47.418;19.080;2024-01-10T07:15:12;20.17;;;9.10;;
63653;SDS011;49809;47.418;19.080;2024-01-10T07:18:35;21.05;;;9.98;;
63653;SDS011;49809;47.418;19.080;2024-01-10T07:22:08;30.98;;;11.27;;
63653;SDS011;49809;47.418;19.080;2024-01-10T07:25:43;28.17;;;13.00;;
63653;SDS011;49809;47.418;19.080;2024-01-10T07:29:10;34.13;;;12.82;;
63653;SDS011;49809;47.418;19.080;2024-01-10T07:32:45;25.98;;;12.02;;
63653;SDS011;49809;47.418;19.080;2024-01-10T07:36:12;29.05;;;13.40;;
63653;SDS011;49809;47.418;19.080;2024-01-10T07:39:57;36.00;;;14.52;;
63653;SDS011;49809;47.418;19.080;2024-01-10T07:43:35;30.42;;;12.98;;
63653;SDS011;49809;47.418;19.080;2024-01-10T07:47:04;31.95;;;14.43;;
63653;SDS011;49809;47.418;19.080;2024-01-10T07:50:41;31.37;;;11.93;;
63653;SDS011;49809;47.418;19.080;2024-01-10T07:54:21;36.53;;;12.15;;
63653;SDS011;49809;47.418;19.080;2024-01-10T07:57:52;27.27;;;11.63;;
63653;SDS011;49809;47.418;19.080;2024-01-10T08:01:31;35.65;;;12.60;;
63653;SDS011;49809;47.418;19.080;2024-01-10T08:05:11;28.05;;;12.63;;
63653;SDS011;49809;47.418;19.080;2024-01-10T08:08:52;27.70;;;12.63;;
63653;SDS011;49809;47.418;19.080;2024-01-10T08:12:27;27.55;;;12.65;;
63653;SDS011;49809;47.418;19.080;2024-01-10T08:15:54;36.60;;;14.05;;
63653;SDS011;49809;47.418;19.080;2024-01-10T08:19:29;43.75;;;14.68;;
63653;SDS011;49809;47.418;19.080;2024-01-10T08:48:39;31.77;;;13.20;;
63653;SDS011;49809;47.418;19.080;2024-01-10T08:52:24;33.75;;;14.18;;
63653;SDS011;49809;47.418;19.080;2024-01-10T08:56:05;26.52;;;11.63;;
63653;SDS011;49809;47.418;19.080;2024-01-10T09:03:07;29.33;;;11.73;;
63653;SDS011;49809;47.418;19.080;2024-01-10T09:06:45;29.58;;;11.63;;
63653;SDS011;49809;47.418;19.080;2024-01-10T09:14:18;26.80;;;11.15;;
63653;SDS011;49809;47.418;19.080;2024-01-10T09:17:56;23.50;;;10.32;;
63653;SDS011;49809;47.418;19.080;2024-01-10T09:21:31;20.88;;;10.02;;
63653;SDS011;49809;47.418;19.080;2024-01-10T09:25:10;27.08;;;11.57;;
63653;SDS011;49809;47.418;19.080;2024-01-10T09:28:40;24.95;;;9.82;;
63653;SDS011;49809;47.418;19.080;2024-01-10T09:31:59;22.40;;;10.30;;
63653;SDS011;49809;47.418;19.080;2024-01-10T09:35:41;23.95;;;10.25;;
63653;SDS011;49809;47.418;19.080;2024-01-10T09:39:19;20.58;;;9.55;;
63653;SDS011;49809;47.418;19.080;2024-01-10T09:42:51;21.15;;;9.15;;
63653;SDS011;49809;47.418;19.080;2024-01-10T09:50:32;18.37;;;8.00;;
63653;SDS011;49809;47.418;19.080;2024-01-10T09:54:03;21.17;;;8.63;;
63653;SDS011;49809;47.418;19.080;2024-01-10T09:57:58;19.75;;;9.10;;
63653;SDS011;49809;47.418;19.080;2024-01-10T10:01:53;16.83;;;7.90;;
63653;SDS011;49809;47.418;19.080;2024-01-10T10:05:36;20.55;;;7.28;;
63653;SDS011;49809;47.418;19.080;2024-01-10T10:09:15;13.30;;;6.25;;
63653;SDS011;49809;47.418;19.080;2024-01-10T10:12:52;16.55;;;6.60;;
63653;SDS011;49809;47.418;19.080;2024-01-10T10:16:25;19.15;;;7.18;;
63653;SDS011;49809;47.418;19.080;2024-01-10T10:20:07;17.23;;;8.00;;
63653;SDS011;49809;47.418;19.080;2024-01-10T10:23:38;20.50;;;7.55;;
63653;SDS011;49809;47.418;19.080;2024-01-10T10:30:48;21.58;;;8.85;;
63653;SDS011;49809;47.418;19.080;2024-01-10T10:34:30;18.65;;;8.30;;
63653;SDS011;49809;47.418;19.080;2024-01-10T10:38:09;18.95;;;8.02;;
63653;SDS011;49809;47.418;19.080;2024-01-10T10:41:43;16.42;;;7.78;;
63653;SDS011;49809;47.418;19.080;2024-01-10T10:45:25;17.77;;;7.45;;
63653;SDS011;49809;47.418;19.080;2024-01-10T10:49:05;16.67;;;7.83;;
63653;SDS011;49809;47.418;19.080;2024-01-10T10:52:42;15.93;;;6.97;;
63653;SDS011;49809;47.418;19.080;2024-01-10T10:56:26;23.42;;;6.97;;
63653;SDS011;49809;47.418;19.080;2024-01-10T11:00:09;16.98;;;7.28;;
63653;SDS011;49809;47.418;19.080;2024-01-10T11:03:29;14.43;;;7.07;;
63653;SDS011;49809;47.418;19.080;2024-01-10T11:07:08;18.00;;;7.90;;
63653;SDS011;49809;47.418;19.080;2024-01-10T11:10:45;23.00;;;7.87;;
63653;SDS011;49809;47.418;19.080;2024-01-10T11:23:03;20.62;;;8.93;;
63653;SDS011;49809;47.418;19.080;2024-01-10T11:30:48;25.83;;;9.57;;
63653;SDS011;49809;47.418;19.080;2024-01-10T11:34:26;21.30;;;8.45;;
63653;SDS011;49809;47.418;19.080;2024-01-10T11:38:00;20.85;;;8.65;;
63653;SDS011;49809;47.418;19.080;2024-01-10T11:41:34;17.23;;;8.65;;
63653;SDS011;49809;47.418;19.080;2024-01-10T11:49:12;21.12;;;8.35;;
63653;SDS011;49809;47.418;19.080;2024-01-10T11:52:53;22.65;;;9.98;;
63653;SDS011;49809;47.418;19.080;2024-01-10T11:56:39;21.98;;;11.52;;
63653;SDS011;49809;47.418;19.080;2024-01-10T12:00:19;25.77;;;13.32;;
63653;SDS011;49809;47.418;19.080;2024-01-10T12:04:02;26.08;;;12.55;;
63653;SDS011;49809;47.418;19.080;2024-01-10T12:07:23;27.13;;;13.23;;
63653;SDS011;49809;47.418;19.080;2024-01-10T12:11:03;31.08;;;14.02;;
63653;SDS011;49809;47.418;19.080;2024-01-10T12:14:46;30.60;;;12.98;;
63653;SDS011;49809;47.418;19.080;2024-01-10T12:18:22;28.23;;;12.80;;
63653;SDS011;49809;47.418;19.080;2024-01-10T12:21:57;30.75;;;12.68;;
63653;SDS011;49809;47.418;19.080;2024-01-10T12:25:32;29.10;;;12.73;;
63653;SDS011;49809;47.418;19.080;2024-01-10T12:32:50;29.37;;;12.10;;
63653;SDS011;49809;47.418;19.080;2024-01-10T12:36:35;21.17;;;10.75;;
63653;SDS011;49809;47.418;19.080;2024-01-10T12:40:21;25.08;;;10.52;;
63653;SDS011;49809;47.418;19.080;2024-01-10T12:44:18;23.92;;;11.18;;
63653;SDS011;49809;47.418;19.080;2024-01-10T12:47:54;25.00;;;10.40;;
63653;SDS011;49809;47.418;19.080;2024-01-10T12:51:30;25.50;;;11.23;;
63653;SDS011;49809;47.418;19.080;2024-01-10T12:55:15;27.60;;;11.35;;
63653;SDS011;49809;47.418;19.080;2024-01-10T12:58:55;25.67;;;10.73;;
63653;SDS011;49809;47.418;19.080;2024-01-10T13:06:14;23.12;;;10.70;;
63653;SDS011;49809;47.418;19.080;2024-01-10T13:09:53;29.20;;;11.00;;
63653;SDS011;49809;47.418;19.080;2024-01-10T13:13:34;26.00;;;10.48;;
63653;SDS011;49809;47.418;19.080;2024-01-10T13:17:24;19.05;;;8.98;;
63653;SDS011;49809;47.418;19.080;2024-01-10T13:21:00;26.40;;;9.90;;
63653;SDS011;49809;47.418;19.080;2024-01-10T13:24:32;18.52;;;9.23;;
63653;SDS011;49809;47.418;19.080;2024-01-10T13:32:07;23.75;;;9.88;;
63653;SDS011;49809;47.418;19.080;2024-01-10T13:35:44;21.27;;;9.75;;
63653;SDS011;49809;47.418;19.080;2024-01-10T13:53:51;19.27;;;8.45;;
63653;SDS011;49809;47.418;19.080;2024-01-10T14:01:13;16.77;;;8.32;;
63653;SDS011;49809;47.418;19.080;2024-01-10T14:04:48;21.70;;;8.95;;
63653;SDS011;49809;47.418;19.080;2024-01-10T14:25:29;30.58;;;12.13;;
63653;SDS011;49809;47.418;19.080;2024-01-10T14:29:00;28.77;;;10.95;;
63653;SDS011;49809;47.418;19.080;2024-01-10T14:33:13;24.08;;;10.40;;
63653;SDS011;49809;47.418;19.080;2024-01-10T14:36:54;22.98;;;10.93;;
63653;SDS011;49809;47.418;19.080;2024-01-10T14:40:37;22.17;;;11.02;;
63653;SDS011;49809;47.418;19.080;2024-01-10T14:44:23;24.52;;;9.93;;
63653;SDS011;49809;47.418;19.080;2024-01-10T14:47:59;22.27;;;10.30;;
63653;SDS011;49809;47.418;19.080;2024-01-10T14:51:35;28.75;;;11.80;;
63653;SDS011;49809;47.418;19.080;2024-01-10T14:55:16;25.55;;;12.05;;
63653;SDS011;49809;47.418;19.080;2024-01-10T14:59:32;30.27;;;12.13;;
63653;SDS011;49809;47.418;19.080;2024-01-10T15:03:18;23.62;;;11.48;;
63653;SDS011;49809;47.418;19.080;2024-01-10T15:06:59;33.15;;;12.48;;
63653;SDS011;49809;47.418;19.080;2024-01-10T15:11:00;25.95;;;11.75;;
63653;SDS011;49809;47.418;19.080;2024-01-10T15:14:11;23.70;;;10.75;;
63653;SDS011;49809;47.418;19.080;2024-01-10T15:17:54;24.98;;;11.27;;
63653;SDS011;49809;47.418;19.080;2024-01-10T15:21:18;23.33;;;10.93;;
63653;SDS011;49809;47.418;19.080;2024-01-10T15:25:06;23.35;;;10.27;;
63653;SDS011;49809;47.418;19.080;2024-01-10T15:28:30;27.20;;;11.25;;
63653;SDS011;49809;47.418;19.080;2024-01-10T15:32:02;26.12;;;11.23;;
63653;SDS011;49809;47.418;19.080;2024-01-10T15:35:26;28.62;;;11.55;;
63653;SDS011;49809;47.418;19.080;2024-01-10T15:38:51;28.55;;;10.75;;
63653;SDS011;49809;47.418;19.080;2024-01-10T15:41:57;22.08;;;10.18;;
63653;SDS011;49809;47.418;19.080;2024-01-10T15:45:02;38.63;;;13.15;;
63653;SDS011;49809;47.418;19.080;2024-01-10T15:48:09;35.72;;;12.88;;
63653;SDS011;49809;47.418;19.080;2024-01-10T15:51:36;45.90;;;16.37;;
63653;SDS011;49809;47.418;19.080;2024-01-10T15:54:41;49.10;;;17.02;;
63653;SDS011;49809;47.418;19.080;2024-01-10T15:57:44;48.08;;;16.48;;
63653;SDS011;49809;47.418;19.080;2024-01-10T16:00:48;44.63;;;16.92;;
63653;SDS011;49809;47.418;19.080;2024-01-10T16:04:15;44.22;;;15.13;;
63653;SDS011;49809;47.418;19.080;2024-01-10T16:07:17;38.53;;;15.15;;
63653;SDS011;49809;47.418;19.080;2024-01-10T16:10:26;39.65;;;13.82;;
63653;SDS011;49809;47.418;19.080;2024-01-10T16:13:36;36.35;;;14.95;;
63653;SDS011;49809;47.418;19.080;2024-01-10T16:16:44;36.72;;;14.52;;
63653;SDS011;49809;47.418;19.080;2024-01-10T16:19:50;38.75;;;15.27;;
63653;SDS011;49809;47.418;19.080;2024-01-10T16:23:00;32.33;;;14.02;;
63653;SDS011;49809;47.418;19.080;2024-01-10T16:26:03;45.67;;;15.57;;
63653;SDS011;49809;47.418;19.080;2024-01-10T16:29:06;39.60;;;14.35;;
63653;SDS011;49809;47.418;19.080;2024-01-10T16:32:09;37.83;;;15.48;;
63653;SDS011;49809;47.418;19.080;2024-01-10T16:35:12;32.60;;;14.20;;
63653;SDS011;49809;47.418;19.080;2024-01-10T16:38:19;27.15;;;12.75;;
63653;SDS011;49809;47.418;19.080;2024-01-10T16:41:25;36.95;;;14.10;;
63653;SDS011;49809;47.418;19.080;2024-01-10T16:44:29;37.15;;;14.32;;
63653;SDS011;49809;47.418;19.080;2024-01-10T16:47:58;45.40;;;16.33;;
63653;SDS011;49809;47.418;19.080;2024-01-10T16:51:01;43.42;;;16.60;;
63653;SDS011;49809;47.418;19.080;2024-01-10T16:54:06;51.40;;;19.58;;
63653;SDS011;49809;47.418;19.080;2024-01-10T16:57:13;58.60;;;20.48;;
63653;SDS011;49809;47.418;19.080;2024-01-10T17:00:19;54.78;;;19.70;;
63653;SDS011;49809;47.418;19.080;2024-01-10T17:03:46;57.17;;;21.00;;
63653;SDS011;49809;47.418;19.080;2024-01-10T17:07:00;55.35;;;20.90;;
63653;SDS011;49809;47.418;19.080;2024-01-10T17:10:05;62.55;;;22.65;;
63653;SDS011;49809;47.418;19.080;2024-01-10T17:13:09;68.30;;;24.65;;
63653;SDS011;49809;47.418;19.080;2024-01-10T17:16:15;58.60;;;23.00;;
63653;SDS011;49809;47.418;19.080;2024-01-10T17:19:20;58.28;;;21.62;;
63653;SDS011;49809;47.418;19.080;2024-01-10T17:22:26;59.03;;;23.95;;
63653;SDS011;49809;47.418;19.080;2024-01-10T17:25:31;60.20;;;22.85;;
63653;SDS011;49809;47.418;19.080;2024-01-10T17:28:37;60.67;;;22.90;;
63653;SDS011;49809;47.418;19.080;2024-01-10T17:31:40;56.83;;;22.85;;
63653;SDS011;49809;47.418;19.080;2024-01-10T17:34:43;55.60;;;20.92;;
63653;SDS011;49809;47.418;19.080;2024-01-10T17:37:47;49.50;;;20.83;;
63653;SDS011;49809;47.418;19.080;2024-01-10T17:40:50;49.92;;;20.20;;
63653;SDS011;49809;47.418;19.080;2024-01-10T17:43:59;50.80;;;21.20;;
63653;SDS011;49809;47.418;19.080;2024-01-10T17:47:03;57.35;;;22.42;;
63653;SDS011;49809;47.418;19.080;2024-01-10T17:50:12;60.17;;;22.67;;
63653;SDS011;49809;47.418;19.080;2024-01-10T17:53:15;52.85;;;20.75;;
63653;SDS011;49809;47.418;19.080;2024-01-10T17:56:18;61.90;;;22.70;;
63653;SDS011;49809;47.418;19.080;2024-01-10T17:59:23;53.58;;;22.23;;
63653;SDS011;49809;47.418;19.080;2024-01-10T18:02:26;55.95;;;21.80;;
63653;SDS011;49809;47.418;19.080;2024-01-10T18:05:31;52.92;;;19.20;;
63653;SDS011;49809;47.418;19.080;2024-01-10T18:08:41;46.53;;;20.67;;
63653;SDS011;49809;47.418;19.080;2024-01-10T18:11:44;56.58;;;22.80;;
63653;SDS011;49809;47.418;19.080;2024-01-10T18:14:47;58.17;;;21.87;;
63653;SDS011;49809;47.418;19.080;2024-01-10T18:17:52;58.35;;;22.70;;
63653;SDS011;49809;47.418;19.080;2024-01-10T18:21:03;49.97;;;20.55;;
63653;SDS011;49809;47.418;19.080;2024-01-10T18:24:08;46.97;;;19.42;;
63653;SDS011;49809;47.418;19.080;2024-01-10T18:27:11;49.70;;;20.52;;
63653;SDS011;49809;47.418;19.080;2024-01-10T18:30:17;46.33;;;19.70;;
63653;SDS011;49809;47.418;19.080;2024-01-10T18:33:23;46.30;;;20.27;;
63653;SDS011;49809;47.418;19.080;2024-01-10T18:36:26;47.17;;;20.77;;
63653;SDS011;49809;47.418;19.080;2024-01-10T18:42:36;50.12;;;19.08;;
63653;SDS011;49809;47.418;19.080;2024-01-10T18:45:42;53.72;;;19.98;;
63653;SDS011;49809;47.418;19.080;2024-01-10T18:48:45;59.55;;;22.30;;
63653;SDS011;49809;47.418;19.080;2024-01-10T18:51:52;48.87;;;21.02;;
63653;SDS011;49809;47.418;19.080;2024-01-10T18:55:04;59.83;;;23.23;;
63653;SDS011;49809;47.418;19.080;2024-01-10T18:58:08;54.72;;;22.35;;
63653;SDS011;49809;47.418;19.080;2024-01-10T19:01:20;57.33;;;21.45;;
63653;SDS011;49809;47.418;19.080;2024-01-10T19:04:25;52.55;;;20.98;;
63653;SDS011;49809;47.418;19.080;2024-01-10T19:07:31;52.00;;;22.60;;
63653;SDS011;49809;47.418;19.080;2024-01-10T19:10:34;58.83;;;23.67;;
63653;SDS011;49809;47.418;19.080;2024-01-10T19:16:45;58.72;;;22.35;;
63653;SDS011;49809;47.418;19.080;2024-01-10T19:19:51;51.05;;;21.67;;
63653;SDS011;49809;47.418;19.080;2024-01-10T19:22:54;63.40;;;27.27;;
63653;SDS011;49809;47.418;19.080;2024-01-10T19:25:58;76.22;;;29.87;;
63653;SDS011;49809;47.418;19.080;2024-01-10T19:29:03;78.53;;;28.55;;
63653;SDS011;49809;47.418;19.080;2024-01-10T19:32:07;78.18;;;32.97;;
63653;SDS011;49809;47.418;19.080;2024-01-10T19:35:10;73.60;;;30.35;;
63653;SDS011;49809;47.418;19.080;2024-01-10T19:38:14;86.43;;;32.00;;
63653;SDS011;49809;47.418;19.080;2024-01-10T19:41:24;78.45;;;29.15;;
63653;SDS011;49809;47.418;19.080;2024-01-10T19:44:31;81.78;;;31.95;;
63653;SDS011;49809;47.418;19.080;2024-01-10T19:47:37;78.20;;;31.60;;
63653;SDS011;49809;47.418;19.080;2024-01-10T19:50:43;81.72;;;32.53;;
63653;SDS011;49809;47.418;19.080;2024-01-10T19:53:51;93.20;;;34.17;;
63653;SDS011;49809;47.418;19.080;2024-01-10T19:57:17;98.65;;;37.25;;
63653;SDS011;49809;47.418;19.080;2024-01-10T20:00:20;92.07;;;38.47;;
63653;SDS011;49809;47.418;19.080;2024-01-10T20:03:26;92.10;;;33.70;;
63653;SDS011;49809;47.418;19.080;2024-01-10T20:06:30;95.18;;;34.78;;
63653;SDS011;49809;47.418;19.080;2024-01-10T20:09:36;92.50;;;34.10;;
63653;SDS011;49809;47.418;19.080;2024-01-10T20:12:41;96.97;;;35.25;;
63653;SDS011;49809;47.418;19.080;2024-01-10T20:15:45;93.22;;;34.65;;
63653;SDS011;49809;47.418;19.080;2024-01-10T20:18:49;103.22;;;37.78;;
63653;SDS011;49809;47.418;19.080;2024-01-10T20:21:53;96.75;;;36.05;;
63653;SDS011;49809;47.418;19.080;2024-01-10T20:24:56;85.82;;;34.25;;
63653;SDS011;49809;47.418;19.080;2024-01-10T20:28:00;89.30;;;35.45;;
63653;SDS011;49809;47.418;19.080;2024-01-10T20:31:02;87.25;;;32.40;;
63653;SDS011;49809;47.418;19.080;2024-01-10T20:34:08;87.53;;;31.57;;
63653;SDS011;49809;47.418;19.080;2024-01-10T20:37:11;90.50;;;36.92;;
63653;SDS011;49809;47.418;19.080;2024-01-10T20:40:14;97.75;;;35.45;;
63653;SDS011;49809;47.418;19.080;2024-01-10T20:43:17;99.87;;;36.40;;
63653;SDS011;49809;47.418;19.080;2024-01-10T20:46:21;93.70;;;34.50;;
63653;SDS011;49809;47.418;19.080;2024-01-10T20:49:23;111.25;;;38.30;;
63653;SDS011;49809;47.418;19.080;2024-01-10T20:52:26;100.82;;;36.90;;
63653;SDS011;49809;47.418;19.080;2024-01-10T20:55:29;92.72;;;35.28;;
63653;SDS011;49809;47.418;19.080;2024-01-10T20:58:32;86.35;;;33.97;;